M I D A S
Marine Information and Data Acquisition System
Tripno 2172 of the Zeeleeuw from 2011-08-26 05:31:22 to 2011-08-26 13:25:08
Back to CruiseResearch ActivitiesStationsMapUnderway DataData graphs

EquipmentUnitsComments
TimeDGPSUTC
LatitudeDGPSDM.mWGS84
LongitudeDGPSDM.mWGS84
SpeedMeteo Stationm/sRelative wind speed
DirectionMeteo StationdegRelative wind direction
TemperatureMeteo Stationdeg CelciusAir temperature
PressureMeteo StationPaAtmospheric pressure
HumidityMeteo Station%Relative humidity
Missing or incorrect values are displayed as -999
Metereological data collected by the RV Zeeleeuw from 2011-08-26 05:18:30 to 2011-08-26 13:36:39
                                                                                    Next 1000 lines
Time Latitude Longitude Speed Direction Temperature Pressure Humidity
2011-08-26 05:18:40 51°13.635 2°56.018 4.6 278 17.2 100100 50
2011-08-26 05:18:46 51°13.635 2°56.018 4.3 32 17.2 100110 48
2011-08-26 05:18:51 51°13.635 2°56.018 5.6 283 17.2 100110 48
2011-08-26 05:18:55 51°13.635 2°56.018 8.6 31 17.2 100100 49
2011-08-26 05:19:00 51°13.635 2°56.018 4.7 284 17.2 100100 49
2011-08-26 05:19:06 51°13.635 2°56.018 6 26 17.2 100100 50
2011-08-26 05:19:11 51°13.635 2°56.018 4.2 279 17.2 100100 50
2011-08-26 05:19:15 51°13.635 2°56.018 4.8 315 17.2 100100 49
2011-08-26 05:19:19 51°13.635 2°56.018 6.1 278 17.2 100100 49
2011-08-26 05:19:25 51°13.635 2°56.018 6.3 38 17.2 100110 49
2011-08-26 05:19:30 51°13.635 2°56.018 6.6 282 17.2 100110 49
2011-08-26 05:19:35 51°13.635 2°56.018 6.5 23 17.2 100110 48
2011-08-26 05:19:40 51°13.635 2°56.018 5.1 279 17.2 100110 48
2011-08-26 05:19:45 51°13.635 2°56.018 6.2 238 17.2 100100 49
2011-08-26 05:19:51 51°13.635 2°56.017 5.5 285 17.2 100100 49
2011-08-26 05:19:55 51°13.635 2°56.017 8.1 21 17.2 100100 49
2011-08-26 05:20:00 51°13.635 2°56.017 3.6 278 17.2 100100 49
2011-08-26 05:20:06 51°13.636 2°56.017 6.1 39 17.2 100100 49
2011-08-26 05:20:11 51°13.636 2°56.017 5.4 282 17.2 100100 49
2011-08-26 05:20:15 51°13.636 2°56.018 6 319 17.2 100100 50
2011-08-26 05:20:19 51°13.636 2°56.018 6.2 281 17.2 100100 50
2011-08-26 05:20:25 51°13.636 2°56.018 6.3 318 17.2 100100 47
2011-08-26 05:20:31 51°13.636 2°56.018 7.1 277 17.2 100100 47
2011-08-26 05:20:35 51°13.635 2°56.018 7.3 32 17.2 100100 49
2011-08-26 05:20:40 51°13.635 2°56.018 5.2 285 17.2 100100 49
2011-08-26 05:20:46 51°13.635 2°56.018 6.5 33 17.2 100100 49
2011-08-26 05:20:51 51°13.635 2°56.018 5.7 285 17.2 100100 49
2011-08-26 05:20:55 51°13.635 2°56.018 4.8 316 17.2 100100 48
2011-08-26 05:21:00 51°13.635 2°56.018 5.7 283 17.2 100100 48
2011-08-26 05:21:06 51°13.635 2°56.018 5 317 17.2 100100 49
2011-08-26 05:21:11 51°13.635 2°56.018 4.9 284 17.2 100100 49
2011-08-26 05:21:15 51°13.635 2°56.018 3 319 17.2 100100 48
2011-08-26 05:21:19 51°13.635 2°56.018 4 282 17.2 100100 48
2011-08-26 05:21:25 51°13.635 2°56.018 3.9 326 17.2 100100 49
2011-08-26 05:21:30 51°13.635 2°56.018 4.5 -999 17.2 100100 49
2011-08-26 05:21:35 51°13.634 2°56.018 7 320 17.2 100100 50
2011-08-26 05:21:40 51°13.634 2°56.018 7.2 281 17.2 100100 50
2011-08-26 05:21:45 51°13.634 2°56.018 8.6 318 17.2 100090 48
2011-08-26 05:21:51 51°13.634 2°56.017 6 284 17.2 100090 48
2011-08-26 05:21:55 51°13.634 2°56.016 5.1 326 17.2 100090 49
2011-08-26 05:22:00 51°13.635 2°56.014 4 283 17.2 100090 49
2011-08-26 05:22:06 51°13.635 2°56.009 2.8 328 17.2 100100 49
2011-08-26 05:22:11 51°13.636 2°56.005 3.7 284 17.2 100100 49
2011-08-26 05:22:15 51°13.637 2°56 4.2 323 17.2 100090 49
2011-08-26 05:22:21 51°13.639 2°55.992 3.9 284 17.2 100090 49
2011-08-26 05:22:27 51°13.641 2°55.982 3.6 317 17.2 100090 48
2011-08-26 05:22:32 51°13.644 2°55.974 4.2 284 17.2 100090 48
2011-08-26 05:22:38 51°13.646 2°55.962 3.3 320 17.2 100100 49
2011-08-26 05:22:44 51°13.649 2°55.949 1.2 281 17.2 100100 49
2011-08-26 05:22:49 51°13.651 2°55.938 3.4 334 17.2 100100 49
2011-08-26 05:22:54 51°13.653 2°55.928 2.1 279 17.2 100100 49
2011-08-26 05:22:59 51°13.655 2°55.918 1.3 236 17.2 100100 50
2011-08-26 05:23:04 51°13.657 2°55.908 2.2 283 17.2 100100 50
2011-08-26 05:23:09 51°13.659 2°55.898 1.5 40 17.2 100100 48
2011-08-26 05:23:14 51°13.66 2°55.889 1.9 286 17.2 100100 48
2011-08-26 05:23:19 51°13.662 2°55.88 4.8 324 17.2 100090 49
2011-08-26 05:23:24 51°13.664 2°55.871 2.3 278 17.2 100090 49
2011-08-26 05:23:29 51°13.666 2°55.862 3.2 317 17.2 100100 49
2011-08-26 05:23:34 51°13.668 2°55.854 5 284 17.2 100100 49
2011-08-26 05:23:39 51°13.67 2°55.845 6 236 17.2 100100 46
2011-08-26 05:23:44 51°13.672 2°55.836 6.4 278 17.2 100100 46
2011-08-26 05:23:49 51°13.674 2°55.828 5.6 23 17.2 100100 49
2011-08-26 05:23:54 51°13.677 2°55.819 5.5 283 17.2 100100 49
2011-08-26 05:23:59 51°13.681 2°55.81 5.5 232 17.2 100100 49
2011-08-26 05:24:04 51°13.685 2°55.802 6.2 279 17.2 100100 49
2011-08-26 05:24:09 51°13.689 2°55.793 5.3 240 17.2 100090 48
2011-08-26 05:24:14 51°13.693 2°55.785 4.2 285 17.2 100090 48
2011-08-26 05:24:19 51°13.698 2°55.777 4.5 250 17.2 100090 48
2011-08-26 05:24:24 51°13.703 2°55.769 5.9 284 17.2 100090 48
2011-08-26 05:24:29 51°13.708 2°55.761 4.4 259 17.2 100090 48
2011-08-26 05:24:34 51°13.713 2°55.754 4.8 283 17.2 100090 48
2011-08-26 05:24:39 51°13.718 2°55.748 4.3 23 17.2 100090 49
2011-08-26 05:24:44 51°13.723 2°55.741 5.1 283 17.2 100090 49
2011-08-26 05:24:49 51°13.729 2°55.734 4.4 253 17.2 100090 48
2011-08-26 05:24:54 51°13.735 2°55.727 4.4 278 17.2 100090 48
2011-08-26 05:24:59 51°13.741 2°55.721 4.6 258 17.2 100100 49
2011-08-26 05:25:04 51°13.747 2°55.715 6.2 285 17.2 100100 49
2011-08-26 05:25:09 51°13.753 2°55.709 6.4 259 17.2 100090 48
2011-08-26 05:25:14 51°13.759 2°55.704 8.2 286 17.2 100090 48
2011-08-26 05:25:19 51°13.764 2°55.698 6.6 245 17.2 100100 48
2011-08-26 05:25:23 51°13.769 2°55.694 7.1 283 17.2 100100 48
2011-08-26 05:25:29 51°13.776 2°55.688 5.4 256 17.2 100100 48
2011-08-26 05:25:34 51°13.782 2°55.683 5.9 279 17.2 100100 48
2011-08-26 05:25:39 51°13.789 2°55.679 3.3 260 17.2 100100 48
2011-08-26 05:25:44 51°13.795 2°55.674 5.7 284 17.2 100100 48
2011-08-26 05:25:49 51°13.802 2°55.67 7.4 252 17.2 100100 48
2011-08-26 05:25:54 51°13.808 2°55.666 2.7 281 17.2 100100 48
2011-08-26 05:25:59 51°13.815 2°55.662 4.1 266 17.2 100100 49
2011-08-26 05:26:04 51°13.821 2°55.659 3.3 76 17.2 100100 49
2011-08-26 05:26:09 51°13.827 2°55.655 3.9 256 17.2 100100 50
2011-08-26 05:26:14 51°13.834 2°55.652 4.5 280 17.2 100100 50
2011-08-26 05:26:19 51°13.84 2°55.648 3.1 265 17.2 100100 47
2011-08-26 05:26:24 51°13.847 2°55.645 4.3 285 17.2 100100 47
2011-08-26 05:26:29 51°13.853 2°55.642 3.4 34 17.2 100100 50
2011-08-26 05:26:34 51°13.859 2°55.639 3.7 285 17.2 100100 50
2011-08-26 05:26:39 51°13.865 2°55.636 3.2 32 17.2 100100 49
2011-08-26 05:26:44 51°13.871 2°55.634 5.1 76 17.2 100100 49
2011-08-26 05:26:49 51°13.877 2°55.631 5 28 17.2 100100 48
2011-08-26 05:26:54 51°13.883 2°55.629 4.6 282 17.2 100100 48
2011-08-26 05:26:59 51°13.889 2°55.628 4.5 261 17.2 100100 49
2011-08-26 05:27:04 51°13.895 2°55.626 6 279 17.2 100100 49
2011-08-26 05:27:09 51°13.9 2°55.625 5 265 17.2 100090 50
2011-08-26 05:27:14 51°13.906 2°55.625 4.3 277 17.2 100090 50
2011-08-26 05:27:19 51°13.911 2°55.624 6.4 39 17.2 100100 50
2011-08-26 05:27:24 51°13.917 2°55.624 4 277 17.2 100100 50
2011-08-26 05:27:29 51°13.922 2°55.625 4.3 264 17.2 100100 49
2011-08-26 05:27:34 51°13.926 2°55.625 4.4 88 17.2 100100 49
2011-08-26 05:27:39 51°13.93 2°55.626 4 270 17.2 100100 49
2011-08-26 05:27:44 51°13.935 2°55.627 4.2 75 17.2 100100 49
2011-08-26 05:27:49 51°13.939 2°55.629 4.1 268 17.2 100100 48
2011-08-26 05:27:54 51°13.942 2°55.63 4.9 82 17.2 100100 48
2011-08-26 05:27:59 51°13.946 2°55.632 5.2 32 17.2 100090 48
2011-08-26 05:28:03 51°13.949 2°55.633 5.5 71 17.2 100090 48
2011-08-26 05:28:08 51°13.952 2°55.635 5.4 38 17.2 100090 48
2011-08-26 05:28:14 51°13.955 2°55.636 6.5 85 17.2 100090 48
2011-08-26 05:28:18 51°13.957 2°55.637 6.7 34 17.2 100090 49
2011-08-26 05:28:23 51°13.959 2°55.638 4.7 74 17.2 100090 49
2011-08-26 05:28:28 51°13.96 2°55.638 4.8 31 17.2 100090 47
2011-08-26 05:28:33 51°13.961 2°55.638 7.4 75 17.2 100090 47
2011-08-26 05:28:38 51°13.961 2°55.638 5.7 38 17.2 100090 49
2011-08-26 05:28:43 51°13.962 2°55.636 5.7 288 17.2 100090 49
2011-08-26 05:28:47 51°13.962 2°55.635 3.5 38 17.2 100090 49
2011-08-26 05:28:52 51°13.962 2°55.632 5.2 82 17.2 100090 49
2011-08-26 05:28:58 51°13.962 2°55.628 4.3 39 17.2 100090 46
2011-08-26 05:29:03 51°13.961 2°55.624 4.8 78 17.2 100090 46
2011-08-26 05:29:07 51°13.961 2°55.62 2.1 37 17.2 100090 48
2011-08-26 05:29:12 51°13.961 2°55.615 1.8 83 17.2 100090 48
2011-08-26 05:29:17 51°13.962 2°55.609 1 34 17.2 100090 48
2011-08-26 05:29:22 51°13.963 2°55.603 3.7 82 17.2 100090 49
2011-08-26 05:29:27 51°13.965 2°55.597 4 35 17.2 100090 48
2011-08-26 05:29:31 51°13.966 2°55.592 1.8 44 17.2 100090 48
2011-08-26 05:29:36 51°13.968 2°55.585 3.2 34 17.2 100100 49
2011-08-26 05:29:41 51°13.971 2°55.579 4.8 36 17.2 100100 49
2011-08-26 05:29:46 51°13.974 2°55.572 5.6 40 17.3 100100 48
2011-08-26 05:29:51 51°13.978 2°55.566 4.3 30 17.3 100100 48
2011-08-26 05:29:55 51°13.981 2°55.562 5.7 31 17.3 100100 49
2011-08-26 05:30:00 51°13.986 2°55.556 6.1 29 17.3 100100 49
2011-08-26 05:30:05 51°13.992 2°55.55 5.7 33 17.3 100100 48
2011-08-26 05:30:10 51°13.998 2°55.544 5.3 32 17.3 100100 48
2011-08-26 05:30:15 51°14.005 2°55.536 4.5 22 17.2 100100 49
2011-08-26 05:30:20 51°14.013 2°55.529 4.1 18 17.2 100100 49
2011-08-26 05:30:26 51°14.024 2°55.52 4.1 29 17.2 100090 48
2011-08-26 05:30:31 51°14.034 2°55.512 3.1 -999 17.2 100090 48
2011-08-26 05:30:35 51°14.041 2°55.505 2.8 10 17.2 100090 48
2011-08-26 05:30:41 51°14.053 2°55.494 3.4 18 17.2 100090 48
2011-08-26 05:30:46 51°14.063 2°55.483 5 357 17.2 100090 48
2011-08-26 05:30:51 51°14.074 2°55.473 4.2 12 17.2 100090 48
2011-08-26 05:30:56 51°14.085 2°55.463 3.6 11 17.2 100100 50
2011-08-26 05:31:02 51°14.097 2°55.451 3.8 18 17.2 100100 50
2011-08-26 05:31:07 51°14.109 2°55.441 3.9 6 17.2 100090 47
2011-08-26 05:31:12 51°14.12 2°55.43 5.2 2 17.2 100090 47
2011-08-26 05:31:16 51°14.129 2°55.422 7.7 10 17.2 100100 49
2011-08-26 05:31:21 51°14.141 2°55.411 5.9 18 17.2 100100 49
2011-08-26 05:31:26 51°14.152 2°55.4 5.8 24 17.2 100090 48
2011-08-26 05:31:31 51°14.164 2°55.39 3.6 24 17.2 100090 48
2011-08-26 05:31:36 51°14.176 2°55.378 2.5 8 17.2 100090 48
2011-08-26 05:31:41 51°14.187 2°55.367 3.4 11 17.2 100090 48
2011-08-26 05:31:46 51°14.199 2°55.356 3.8 7 17.2 100090 49
2011-08-26 05:31:51 51°14.211 2°55.344 4.8 10 17.2 100090 49
2011-08-26 05:31:56 51°14.223 2°55.332 4.6 8 17.2 100090 48
2011-08-26 05:32:01 51°14.235 2°55.321 4.5 4 17.2 100090 48
2011-08-26 05:32:06 51°14.248 2°55.31 3 4 17.2 100090 49
2011-08-26 05:32:11 51°14.26 2°55.298 4.2 6 17.2 100090 49
2011-08-26 05:32:16 51°14.273 2°55.286 4.5 8 17.2 100090 48
2011-08-26 05:32:21 51°14.285 2°55.274 5.3 7 17.2 100090 48
2011-08-26 05:32:26 51°14.298 2°55.261 4.6 8 17.2 100090 48
2011-08-26 05:32:32 51°14.313 2°55.245 4.5 5 17.2 100090 48
2011-08-26 05:32:37 51°14.326 2°55.232 5.4 7 17.2 100090 49
2011-08-26 05:32:42 51°14.339 2°55.219 5 16 17.2 100090 49
2011-08-26 05:32:47 51°14.352 2°55.205 4.5 7 17.2 100090 48
2011-08-26 05:32:52 51°14.365 2°55.192 4.9 4 17.2 100090 48
2011-08-26 05:32:57 51°14.378 2°55.178 4.7 5 17.2 100080 49
2011-08-26 05:33:03 51°14.394 2°55.163 5.8 10 17.2 100080 49
2011-08-26 05:33:08 51°14.407 2°55.149 4.9 13 17.2 100090 48
2011-08-26 05:33:13 51°14.42 2°55.134 6.4 19 17.2 100090 48
2011-08-26 05:33:18 51°14.433 2°55.118 6.1 14 17.2 100080 49
2011-08-26 05:33:23 51°14.445 2°55.102 5.3 19 17.2 100080 49
2011-08-26 05:33:28 51°14.458 2°55.085 5.4 16 17.2 100080 49
2011-08-26 05:33:32 51°14.468 2°55.071 5.8 11 17.2 100080 49
2011-08-26 05:33:37 51°14.482 2°55.055 5.3 9 17.2 100080 48
2011-08-26 05:33:42 51°14.494 2°55.035 3.7 6 17.2 100080 48
2011-08-26 05:33:47 51°14.507 2°55.017 4.6 7 17.2 100080 48
2011-08-26 05:33:52 51°14.518 2°54.996 4.3 357 17.2 100080 48
2011-08-26 05:33:56 51°14.528 2°54.98 3.8 6 17.2 100080 49
2011-08-26 05:34:02 51°14.541 2°54.954 2.9 11 17.2 100080 49
2011-08-26 05:34:06 51°14.551 2°54.937 3.3 17 17.2 100080 49
2011-08-26 05:34:11 51°14.563 2°54.917 4.8 11 17.2 100080 49
2011-08-26 05:34:16 51°14.576 2°54.898 4 10 17.2 100080 48
2011-08-26 05:34:20 51°14.586 2°54.882 6.1 12 17.2 100080 48
2011-08-26 05:34:26 51°14.602 2°54.858 9.3 15 17.2 100080 50
2011-08-26 05:34:31 51°14.615 2°54.839 6.2 20 17.2 100080 50
2011-08-26 05:34:36 51°14.628 2°54.821 6.7 20 17.2 100080 48
2011-08-26 05:34:41 51°14.643 2°54.803 6.1 20 17.2 100080 48
2011-08-26 05:34:46 51°14.656 2°54.785 4.3 5 17.2 100090 49
2011-08-26 05:34:51 51°14.67 2°54.768 6.7 12 17.2 100090 49
2011-08-26 05:34:56 51°14.684 2°54.75 7.8 14 17.3 100080 48
2011-08-26 05:35:00 51°14.696 2°54.736 5.9 21 17.3 100080 48
2011-08-26 05:35:06 51°14.713 2°54.716 5.6 15 17.3 100080 48
2011-08-26 05:35:11 51°14.727 2°54.698 6.3 14 17.2 100080 50
2011-08-26 05:35:16 51°14.741 2°54.681 5.6 10 17.3 100080 49
2011-08-26 05:35:21 51°14.755 2°54.665 5.2 8 17.3 100080 49
2011-08-26 05:35:26 51°14.77 2°54.65 6.1 10 17.3 100080 48
2011-08-26 05:35:31 51°14.785 2°54.635 5.5 8 17.3 100080 48
2011-08-26 05:35:36 51°14.8 2°54.622 7.1 14 17.3 100080 49
2011-08-26 05:35:40 51°14.812 2°54.611 7.5 14 17.3 100080 49
2011-08-26 05:35:46 51°14.83 2°54.593 7.7 15 17.3 100080 49
2011-08-26 05:35:51 51°14.845 2°54.579 6.4 14 17.3 100080 49
2011-08-26 05:35:56 51°14.861 2°54.564 5.7 9 17.3 100080 49
2011-08-26 05:36:00 51°14.872 2°54.552 5.6 8 17.3 100080 49
2011-08-26 05:36:06 51°14.89 2°54.534 5.5 6 17.3 100080 49
2011-08-26 05:36:11 51°14.905 2°54.519 4.5 7 17.3 100080 49
2011-08-26 05:36:16 51°14.92 2°54.505 6.2 8 17.3 100080 48
2011-08-26 05:36:21 51°14.935 2°54.49 6.3 9 17.3 100080 48
2011-08-26 05:36:26 51°14.95 2°54.476 7.4 14 17.3 100080 48
2011-08-26 05:36:31 51°14.964 2°54.461 5.8 22 17.3 100080 48
2011-08-26 05:36:36 51°14.979 2°54.445 4.7 15 17.3 100080 48
2011-08-26 05:36:40 51°14.989 2°54.431 5.5 18 17.3 100080 48
2011-08-26 05:36:46 51°15.005 2°54.409 6 15 17.3 100080 48
2011-08-26 05:36:51 51°15.018 2°54.39 5.6 15 17.3 100080 48
2011-08-26 05:36:56 51°15.032 2°54.372 5.1 15 17.3 100080 48
2011-08-26 05:37:00 51°15.042 2°54.357 4.9 19 17.3 100080 48
2011-08-26 05:37:06 51°15.057 2°54.335 5.4 17 17.4 100080 48
2011-08-26 05:37:11 51°15.07 2°54.315 4.5 16 17.4 100080 48
2011-08-26 05:37:16 51°15.081 2°54.294 5.6 18 17.4 100080 48
2011-08-26 05:37:20 51°15.091 2°54.278 4.5 22 17.4 100080 48
2011-08-26 05:37:26 51°15.105 2°54.253 4.7 22 17.4 100080 49
2011-08-26 05:37:31 51°15.118 2°54.233 5 19 17.4 100080 49
2011-08-26 05:37:36 51°15.13 2°54.213 4.4 24 17.4 100090 50
2011-08-26 05:37:40 51°15.14 2°54.198 5.2 22 17.4 100090 50
2011-08-26 05:37:46 51°15.154 2°54.174 5.2 20 17.4 100080 50
2011-08-26 05:37:51 51°15.167 2°54.156 6.3 17 17.4 100080 50
2011-08-26 05:37:56 51°15.18 2°54.137 5.1 16 17.4 100090 49
2011-08-26 05:38:00 51°15.19 2°54.122 4.6 19 17.4 100090 49
2011-08-26 05:38:06 51°15.206 2°54.101 4.8 20 17.4 100090 49
2011-08-26 05:38:11 51°15.219 2°54.083 6.4 18 17.4 100090 49
2011-08-26 05:38:16 51°15.233 2°54.067 5.3 20 17.4 100090 48
2011-08-26 05:38:21 51°15.246 2°54.05 7 20 17.4 100090 48
2011-08-26 05:38:26 51°15.26 2°54.033 5.7 22 17.4 100080 48
2011-08-26 05:38:31 51°15.274 2°54.016 4.7 16 17.4 100080 48
2011-08-26 05:38:36 51°15.287 2°53.998 4.9 18 17.4 100090 48
2011-08-26 05:38:40 51°15.297 2°53.984 6.2 16 17.4 100090 48
2011-08-26 05:38:46 51°15.313 2°53.962 5 21 17.4 100090 50
2011-08-26 05:38:51 51°15.326 2°53.943 5.8 21 17.4 100090 50
2011-08-26 05:38:56 51°15.339 2°53.924 5.6 18 17.4 100090 49
2011-08-26 05:39:01 51°15.351 2°53.905 5.9 22 17.4 100090 49
2011-08-26 05:39:06 51°15.364 2°53.886 5.7 21 17.5 100090 48
2011-08-26 05:39:11 51°15.377 2°53.868 5.1 19 17.5 100090 48
2011-08-26 05:39:16 51°15.39 2°53.85 5.7 19 17.5 100090 49
2011-08-26 05:39:20 51°15.401 2°53.835 5.7 17 17.5 100090 49
2011-08-26 05:39:26 51°15.417 2°53.814 5.5 15 17.5 100090 49
2011-08-26 05:39:31 51°15.431 2°53.798 7.4 20 17.5 100090 49
2011-08-26 05:39:36 51°15.445 2°53.782 7.2 12 17.5 100090 47
2011-08-26 05:39:40 51°15.457 2°53.769 6.7 14 17.5 100090 47
2011-08-26 05:39:46 51°15.474 2°53.75 6.9 12 17.5 100090 48
2011-08-26 05:39:51 51°15.488 2°53.735 7.2 15 17.5 100090 48
2011-08-26 05:39:56 51°15.503 2°53.72 7.7 16 17.5 100090 49
2011-08-26 05:40:00 51°15.515 2°53.707 6.2 14 17.5 100090 49
2011-08-26 05:40:06 51°15.532 2°53.689 5.5 14 17.5 100090 48
2011-08-26 05:40:11 51°15.546 2°53.673 6 18 17.5 100090 48
2011-08-26 05:40:16 51°15.561 2°53.657 6.1 9 17.5 100090 48
2011-08-26 05:40:21 51°15.575 2°53.642 6.4 9 17.5 100090 48
2011-08-26 05:40:26 51°15.59 2°53.627 7 16 17.5 100090 49
2011-08-26 05:40:31 51°15.604 2°53.612 5.9 15 17.5 100090 49
2011-08-26 05:40:36 51°15.619 2°53.596 6.2 13 17.5 100100 49
2011-08-26 05:40:40 51°15.63 2°53.583 5.8 13 17.5 100100 49
2011-08-26 05:40:46 51°15.647 2°53.564 5.6 16 17.5 100090 50
2011-08-26 05:40:51 51°15.661 2°53.547 5.8 13 17.5 100090 50
2011-08-26 05:40:56 51°15.674 2°53.529 6.1 20 17.6 100090 48
2011-08-26 05:41:00 51°15.685 2°53.515 6.1 12 17.6 100090 48
2011-08-26 05:41:06 51°15.702 2°53.495 7.3 17 17.6 100090 49
2011-08-26 05:41:11 51°15.715 2°53.477 6.5 13 17.6 100090 49
2011-08-26 05:41:16 51°15.729 2°53.461 6.3 8 17.6 100100 49
2011-08-26 05:41:20 51°15.741 2°53.448 7 18 17.6 100100 49
2011-08-26 05:41:26 51°15.758 2°53.428 6.2 10 17.6 100100 49
2011-08-26 05:41:31 51°15.773 2°53.415 6.3 -999 17.6 100100 49
2011-08-26 05:41:36 51°15.787 2°53.401 7.4 13 17.6 100090 49
2011-08-26 05:41:40 51°15.799 2°53.39 6.7 10 17.6 100090 49
2011-08-26 05:41:46 51°15.817 2°53.374 7 9 17.6 100100 48
2011-08-26 05:41:51 51°15.832 2°53.361 6.9 10 17.6 100100 48
2011-08-26 05:41:56 51°15.848 2°53.348 6.5 11 17.6 100090 48
2011-08-26 05:42:00 51°15.86 2°53.338 7.2 12 17.6 100090 48
2011-08-26 05:42:06 51°15.879 2°53.323 7.8 7 17.6 100090 49
2011-08-26 05:42:11 51°15.894 2°53.312 7.5 10 17.6 100090 49
2011-08-26 05:42:16 51°15.91 2°53.301 9 11 17.6 100090 47
2011-08-26 05:42:20 51°15.923 2°53.292 7.1 11 17.6 100090 47
2011-08-26 05:42:26 51°15.942 2°53.28 6.1 10 17.6 100090 50
2011-08-26 05:42:31 51°15.958 2°53.27 9 10 17.6 100090 50
2011-08-26 05:42:36 51°15.974 2°53.26 5.7 6 17.6 100090 49
2011-08-26 05:42:40 51°15.987 2°53.252 9.4 12 17.6 100090 49
2011-08-26 05:42:46 51°16.006 2°53.241 7.8 9 17.6 100090 49
2011-08-26 05:42:51 51°16.022 2°53.232 7.9 10 17.6 100090 49
2011-08-26 05:42:56 51°16.038 2°53.223 7.2 7 17.6 100090 49
2011-08-26 05:43:00 51°16.051 2°53.215 9.3 9 17.6 100090 49
2011-08-26 05:43:06 51°16.07 2°53.203 5.6 12 17.6 100080 49
2011-08-26 05:43:11 51°16.085 2°53.192 6.1 8 17.6 100080 49
2011-08-26 05:43:16 51°16.101 2°53.181 7.5 10 17.6 100080 49
2011-08-26 05:43:20 51°16.113 2°53.173 8 8 17.6 100080 49
2011-08-26 05:43:26 51°16.132 2°53.159 6.5 8 17.6 100090 49
2011-08-26 05:43:31 51°16.147 2°53.147 8.3 -999 17.6 100090 49
2011-08-26 05:43:36 51°16.163 2°53.135 7.2 11 17.6 100090 48
2011-08-26 05:43:40 51°16.175 2°53.125 6.3 5 17.6 100090 48
2011-08-26 05:43:46 51°16.194 2°53.111 5.6 8 17.6 100090 49
2011-08-26 05:43:51 51°16.209 2°53.099 8.3 7 17.6 100090 49
2011-08-26 05:43:56 51°16.225 2°53.086 7.4 12 17.6 100090 48
2011-08-26 05:44:00 51°16.237 2°53.076 8.1 8 17.6 100090 48
2011-08-26 05:44:06 51°16.255 2°53.062 5.9 6 17.6 100090 50
2011-08-26 05:44:11 51°16.271 2°53.05 4.8 8 17.6 100090 50
2011-08-26 05:44:16 51°16.287 2°53.038 7 7 17.6 100080 49
2011-08-26 05:44:20 51°16.299 2°53.029 8.1 9 17.6 100080 49
2011-08-26 05:44:26 51°16.317 2°53.015 7.9 8 17.7 100080 49
2011-08-26 05:44:31 51°16.333 2°53.004 5.4 8 17.7 100080 49
2011-08-26 05:44:36 51°16.349 2°52.994 6.2 7 17.6 100080 48
2011-08-26 05:44:40 51°16.362 2°52.986 6.2 7 17.6 100080 48
2011-08-26 05:44:46 51°16.381 2°52.975 8.7 6 17.7 100090 49
2011-08-26 05:44:51 51°16.397 2°52.966 6 2 17.7 100090 49
2011-08-26 05:44:56 51°16.413 2°52.957 6.1 8 17.7 100080 47
2011-08-26 05:45:00 51°16.426 2°52.95 8 7 17.7 100080 47
2011-08-26 05:45:06 51°16.445 2°52.938 5.7 2 17.6 100080 50
2011-08-26 05:45:11 51°16.461 2°52.929 7.9 3 17.6 100080 50
2011-08-26 05:45:16 51°16.477 2°52.92 8.3 6 17.6 100090 48
2011-08-26 05:45:20 51°16.49 2°52.912 9.6 7 17.6 100090 48
2011-08-26 05:45:26 51°16.509 2°52.901 7.2 6 17.6 100080 48
2011-08-26 05:45:31 51°16.524 2°52.891 8.7 -999 17.6 100080 48
2011-08-26 05:45:36 51°16.54 2°52.881 8 6 17.7 100080 49
2011-08-26 05:45:40 51°16.553 2°52.873 9.5 6 17.7 100080 49
2011-08-26 05:45:46 51°16.572 2°52.862 7.3 4 17.6 100080 49
2011-08-26 05:45:51 51°16.588 2°52.852 6.2 7 17.6 100080 49
2011-08-26 05:45:56 51°16.604 2°52.844 6.8 8 17.7 100080 49
2011-08-26 05:46:00 51°16.616 2°52.836 6.3 6 17.7 100080 49
2011-08-26 05:46:06 51°16.635 2°52.825 6.4 6 17.7 100080 49
2011-08-26 05:46:11 51°16.651 2°52.815 7.4 7 17.7 100080 49
2011-08-26 05:46:16 51°16.667 2°52.804 6.5 8 17.7 100080 49
2011-08-26 05:46:20 51°16.679 2°52.796 8.7 9 17.7 100080 49
2011-08-26 05:46:26 51°16.698 2°52.782 8.8 9 17.7 100080 48
2011-08-26 05:46:31 51°16.713 2°52.771 7.2 10 17.7 100080 48
2011-08-26 05:46:36 51°16.728 2°52.759 8.9 11 17.7 100080 49
2011-08-26 05:46:40 51°16.74 2°52.749 6.5 12 17.7 100080 49
2011-08-26 05:46:46 51°16.758 2°52.736 5.8 5 17.7 100080 49
2011-08-26 05:46:51 51°16.773 2°52.725 9.4 8 17.7 100080 49
2011-08-26 05:46:56 51°16.789 2°52.715 6.1 7 17.7 100080 49
2011-08-26 05:47:00 51°16.801 2°52.707 6 7 17.7 100080 49
2011-08-26 05:47:06 51°16.82 2°52.696 5.6 6 17.7 100080 49
2011-08-26 05:47:11 51°16.836 2°52.688 6.8 3 17.7 100080 49
2011-08-26 05:47:16 51°16.851 2°52.679 9.8 7 17.7 100080 48
2011-08-26 05:47:20 51°16.864 2°52.672 7.3 5 17.7 100080 48
2011-08-26 05:47:26 51°16.883 2°52.662 6.3 6 17.7 100080 49
2011-08-26 05:47:31 51°16.899 2°52.654 7.2 7 17.7 100080 49
2011-08-26 05:47:36 51°16.914 2°52.646 8.3 6 17.7 100080 49
2011-08-26 05:47:40 51°16.927 2°52.639 6 5 17.7 100080 48
2011-08-26 05:47:46 51°16.946 2°52.629 7.3 8 17.7 100070 48
2011-08-26 05:47:51 51°16.962 2°52.621 5.6 5 17.7 100070 48
2011-08-26 05:47:56 51°16.977 2°52.612 6.7 7 17.7 100070 48
2011-08-26 05:48:00 51°16.99 2°52.606 10.1 4 17.7 100080 48
2011-08-26 05:48:06 51°17.009 2°52.596 9.3 8 17.7 100080 49
2011-08-26 05:48:11 51°17.025 2°52.587 8.4 9 17.7 100080 49
2011-08-26 05:48:16 51°17.04 2°52.578 8.2 8 17.7 100080 49
2011-08-26 05:48:20 51°17.053 2°52.571 7 8 17.7 100080 49
2011-08-26 05:48:26 51°17.071 2°52.561 7.7 9 17.7 100080 49
2011-08-26 05:48:31 51°17.087 2°52.552 7.3 7 17.7 100080 49
2011-08-26 05:48:36 51°17.103 2°52.545 5.3 4 17.7 100080 49
2011-08-26 05:48:40 51°17.115 2°52.538 6.3 2 17.7 100080 48
2011-08-26 05:48:46 51°17.134 2°52.53 9.8 8 17.7 100080 48
2011-08-26 05:48:50 51°17.147 2°52.526 7.8 7 17.7 100080 49
2011-08-26 05:48:56 51°17.166 2°52.52 7.1 6 17.7 100070 49
2011-08-26 05:49:00 51°17.179 2°52.516 8.8 4 17.7 100070 49
2011-08-26 05:49:06 51°17.198 2°52.511 10.2 4 17.7 100070 49
2011-08-26 05:49:11 51°17.215 2°52.507 7.2 3 17.7 100070 49
2011-08-26 05:49:16 51°17.231 2°52.504 9.6 4 17.7 100070 49
2011-08-26 05:49:20 51°17.244 2°52.502 10.7 1 17.7 100070 49
2011-08-26 05:49:26 51°17.263 2°52.498 7.6 6 17.7 100070 48
2011-08-26 05:49:31 51°17.28 2°52.496 11.2 8 17.7 100070 48
2011-08-26 05:49:36 51°17.296 2°52.493 7.2 3 17.7 100070 48
2011-08-26 05:49:40 51°17.309 2°52.491 11.1 3 17.7 100070 49
2011-08-26 05:49:46 51°17.328 2°52.488 6.5 5 17.7 100070 49
2011-08-26 05:49:51 51°17.345 2°52.485 9.5 4 17.7 100060 50
2011-08-26 05:49:56 51°17.361 2°52.482 9.8 7 17.7 100060 50
2011-08-26 05:50:01 51°17.377 2°52.479 9.1 5 17.7 100070 48
2011-08-26 05:50:06 51°17.394 2°52.476 9.7 4 17.8 100070 48
2011-08-26 05:50:11 51°17.41 2°52.473 10.8 6 17.8 100070 48
2011-08-26 05:50:16 51°17.426 2°52.47 7.1 7 17.8 100070 48
2011-08-26 05:50:20 51°17.439 2°52.468 7.2 6 17.7 100060 48
2011-08-26 05:50:26 51°17.459 2°52.464 11.1 3 17.7 100070 48
2011-08-26 05:50:31 51°17.475 2°52.46 9.5 7 17.7 100070 48
2011-08-26 05:50:36 51°17.491 2°52.456 10.1 8 17.7 100070 48
2011-08-26 05:50:40 51°17.504 2°52.453 6.1 7 17.7 100070 48
2011-08-26 05:50:46 51°17.523 2°52.45 8 5 17.8 100070 50
2011-08-26 05:50:51 51°17.54 2°52.447 7 8 17.8 100070 50
2011-08-26 05:50:56 51°17.556 2°52.445 6.8 3 17.8 100070 49
2011-08-26 05:51:01 51°17.572 2°52.445 7.1 1 17.8 100070 49
2011-08-26 05:51:06 51°17.589 2°52.446 10 2 17.8 100070 49
2011-08-26 05:51:11 51°17.604 2°52.446 11.4 1 17.8 100070 49
2011-08-26 05:51:16 51°17.621 2°52.448 10.4 -999 17.8 100070 49
2011-08-26 05:51:20 51°17.634 2°52.449 9.4 -999 17.8 100070 49
2011-08-26 05:51:26 51°17.653 2°52.452 10.6 2 17.8 100070 49
2011-08-26 05:51:31 51°17.669 2°52.455 7.7 2 17.7 100070 49
2011-08-26 05:51:36 51°17.685 2°52.459 12.2 359 17.8 100070 49
2011-08-26 05:51:41 51°17.7 2°52.463 10.9 360 17.8 100070 49
2011-08-26 05:51:46 51°17.716 2°52.467 8.3 1 17.8 100070 49
2011-08-26 05:51:51 51°17.732 2°52.471 8.5 -999 17.8 100060 49
2011-08-26 05:51:56 51°17.748 2°52.475 12.1 360 17.8 100060 48
2011-08-26 05:52:00 51°17.761 2°52.478 10.7 2 17.8 100060 48
2011-08-26 05:52:06 51°17.78 2°52.482 8 4 17.8 100070 49
2011-08-26 05:52:11 51°17.796 2°52.485 12.4 4 17.8 100070 49
2011-08-26 05:52:16 51°17.812 2°52.488 8.1 1 17.8 100070 49
2011-08-26 05:52:21 51°17.828 2°52.492 9.1 3 17.8 100060 49
2011-08-26 05:52:26 51°17.844 2°52.495 12.8 -999 17.8 100060 49
2011-08-26 05:52:31 51°17.859 2°52.499 10 1 17.8 100060 48
2011-08-26 05:52:36 51°17.875 2°52.502 11.4 359 17.8 100060 49
2011-08-26 05:52:40 51°17.888 2°52.506 10.4 1 17.8 100060 49
2011-08-26 05:52:46 51°17.907 2°52.511 8.5 1 17.8 100070 49
2011-08-26 05:52:51 51°17.922 2°52.517 9.4 360 17.8 100070 49
2011-08-26 05:52:56 51°17.938 2°52.521 9 1 17.8 100060 47
2011-08-26 05:53:00 51°17.951 2°52.525 9.7 1 17.8 100060 47
2011-08-26 05:53:06 51°17.969 2°52.533 5.4 1 17.8 100060 47
2011-08-26 05:53:11 51°17.984 2°52.54 12.2 358 17.8 100060 48
2011-08-26 05:53:16 51°18 2°52.548 9.5 -999 17.8 100060 49
2011-08-26 05:53:20 51°18.012 2°52.554 9.9 359 17.8 100060 49
2011-08-26 05:53:26 51°18.03 2°52.564 12.6 357 17.8 100060 48
2011-08-26 05:53:31 51°18.045 2°52.572 8.8 359 17.8 100060 48
2011-08-26 05:53:36 51°18.059 2°52.581 12.8 359 17.8 100060 48
2011-08-26 05:53:41 51°18.074 2°52.591 13.3 356 17.8 100060 48
2011-08-26 05:53:46 51°18.089 2°52.601 13.9 358 17.8 100060 48
2011-08-26 05:53:51 51°18.103 2°52.612 10.5 355 17.8 100050 48
2011-08-26 05:53:56 51°18.117 2°52.622 14.7 357 17.8 100060 49
2011-08-26 05:54:01 51°18.131 2°52.634 11.3 356 17.8 100060 49
2011-08-26 05:54:06 51°18.145 2°52.646 11.3 356 17.8 100060 49
2011-08-26 05:54:11 51°18.159 2°52.658 10.7 356 17.8 100060 49
2011-08-26 05:54:16 51°18.172 2°52.672 15.8 355 17.8 100060 49
2011-08-26 05:54:21 51°18.186 2°52.686 10.7 353 17.8 100060 49
2011-08-26 05:54:26 51°18.199 2°52.699 13.9 355 17.8 100060 49
2011-08-26 05:54:31 51°18.212 2°52.713 15.9 353 17.8 100060 49
2011-08-26 05:54:36 51°18.226 2°52.726 14.9 355 17.8 100050 49
2011-08-26 05:54:41 51°18.239 2°52.74 13.3 356 17.8 100050 49
2011-08-26 05:54:46 51°18.252 2°52.754 13.2 356 17.8 100060 49
2011-08-26 05:54:51 51°18.266 2°52.767 14.6 356 17.8 100060 49
2011-08-26 05:54:56 51°18.279 2°52.781 12.7 356 17.8 100060 48
2011-08-26 05:55:00 51°18.29 2°52.791 15.6 358 17.8 100060 48
2011-08-26 05:55:06 51°18.306 2°52.806 10.4 357 17.8 100050 48
2011-08-26 05:55:11 51°18.32 2°52.819 14.5 354 17.8 100050 48
2011-08-26 05:55:16 51°18.333 2°52.831 12.9 356 17.8 100060 49
2011-08-26 05:55:20 51°18.344 2°52.842 6.1 357 17.8 100060 49
2011-08-26 05:55:26 51°18.36 2°52.858 16.3 353 17.8 100060 49
2011-08-26 05:55:31 51°18.373 2°52.873 14.2 -999 17.8 100050 49
2011-08-26 05:55:36 51°18.386 2°52.888 11.2 352 17.8 100050 48
2011-08-26 05:55:41 51°18.398 2°52.903 10.8 352 17.8 100050 48
2011-08-26 05:55:46 51°18.41 2°52.919 9.6 349 17.8 100050 48
2011-08-26 05:55:51 51°18.423 2°52.934 14.3 351 17.8 100060 49
2011-08-26 05:55:56 51°18.435 2°52.95 10.8 353 17.8 100060 49
2011-08-26 05:56:01 51°18.447 2°52.967 13.9 350 17.8 100060 49
2011-08-26 05:56:06 51°18.459 2°52.983 11.3 350 17.9 100060 48
2011-08-26 05:56:11 51°18.471 2°52.998 6.5 352 17.9 100060 48
2011-08-26 05:56:16 51°18.483 2°53.014 11.2 351 17.9 100060 48
2011-08-26 05:56:21 51°18.496 2°53.03 14.7 350 17.9 100060 48
2011-08-26 05:56:26 51°18.508 2°53.045 5.8 352 17.9 100050 48
2011-08-26 05:56:31 51°18.521 2°53.061 11.1 351 17.9 100050 48
2011-08-26 05:56:36 51°18.533 2°53.076 12.9 353 17.9 100050 50
2011-08-26 05:56:41 51°18.545 2°53.091 11.3 353 17.9 100050 50
2011-08-26 05:56:46 51°18.558 2°53.107 15.2 353 17.9 100050 49
2011-08-26 05:56:51 51°18.57 2°53.122 10.1 352 17.9 100050 49
2011-08-26 05:56:56 51°18.583 2°53.138 12.7 352 17.9 100050 49
2011-08-26 05:57:00 51°18.593 2°53.15 12.1 353 17.9 100050 49
2011-08-26 05:57:06 51°18.608 2°53.168 15.1 354 17.9 100060 48
2011-08-26 05:57:11 51°18.62 2°53.183 16.2 353 17.9 100060 48
2011-08-26 05:57:16 51°18.633 2°53.198 13.2 354 17.9 100050 48
2011-08-26 05:57:20 51°18.643 2°53.21 11.9 354 17.9 100050 48
2011-08-26 05:57:26 51°18.658 2°53.228 14.8 354 17.9 100050 48
2011-08-26 05:57:31 51°18.67 2°53.243 13.5 352 17.9 100050 48
2011-08-26 05:57:36 51°18.683 2°53.258 15.5 354 17.9 100060 49
2011-08-26 05:57:40 51°18.693 2°53.271 13.5 352 17.9 100060 49
2011-08-26 05:57:46 51°18.708 2°53.289 16 354 17.9 100060 49
2011-08-26 05:57:51 51°18.721 2°53.303 11.3 354 17.9 100050 49
2011-08-26 05:57:56 51°18.734 2°53.316 6.9 356 17.9 100060 49
2011-08-26 05:58:00 51°18.745 2°53.326 15.7 354 17.9 100060 49
2011-08-26 05:58:06 51°18.761 2°53.343 8.7 356 17.9 100060 49
2011-08-26 05:58:11 51°18.775 2°53.355 10.6 355 17.9 100060 49
2011-08-26 05:58:16 51°18.788 2°53.368 10.4 354 17.9 100060 47
2011-08-26 05:58:20 51°18.799 2°53.378 16.8 357 17.9 100060 47
2011-08-26 05:58:26 51°18.815 2°53.393 15.4 357 17.9 100050 48
2011-08-26 05:58:31 51°18.829 2°53.406 12.5 356 17.9 100050 48
2011-08-26 05:58:36 51°18.842 2°53.419 11.4 357 17.9 100050 48
2011-08-26 05:58:40 51°18.853 2°53.43 13.6 357 17.9 100050 49
2011-08-26 05:58:46 51°18.869 2°53.446 11.7 354 17.9 100050 48
2011-08-26 05:58:51 51°18.882 2°53.459 6.8 358 17.9 100050 48
2011-08-26 05:58:56 51°18.896 2°53.473 17.1 356 17.9 100050 48
2011-08-26 05:59:00 51°18.906 2°53.485 11.3 354 17.9 100050 48
2011-08-26 05:59:06 51°18.921 2°53.503 14.8 354 17.9 100060 49
2011-08-26 05:59:11 51°18.934 2°53.518 13.3 353 17.9 100060 49
2011-08-26 05:59:16 51°18.946 2°53.533 15.5 354 17.9 100060 49
2011-08-26 05:59:20 51°18.956 2°53.546 14.5 353 17.9 100040 49
2011-08-26 05:59:26 51°18.971 2°53.564 16 351 17.9 100050 48
2011-08-26 05:59:31 51°18.983 2°53.58 17.6 355 17.9 100050 48
2011-08-26 05:59:36 51°18.996 2°53.596 16.6 352 17.9 100050 49
2011-08-26 05:59:40 51°19.005 2°53.609 13.5 350 17.9 100050 49
2011-08-26 05:59:46 51°19.02 2°53.628 13.7 353 17.9 100050 49
2011-08-26 05:59:51 51°19.032 2°53.644 15.7 353 17.9 100050 49
2011-08-26 05:59:56 51°19.044 2°53.66 16.4 354 17.9 100050 50
2011-08-26 06:00:00 51°19.053 2°53.673 14.2 276 17.9 100050 50
2011-08-26 06:00:06 51°19.068 2°53.692 16.5 351 17.9 100050 50
2011-08-26 06:00:11 51°19.08 2°53.708 15.3 354 17.9 100050 49
2011-08-26 06:00:16 51°19.092 2°53.723 11.6 355 17.9 100050 49
2011-08-26 06:00:20 51°19.102 2°53.735 14.7 353 17.9 100050 49
2011-08-26 06:00:26 51°19.118 2°53.753 11.1 352 17.9 100050 49
2011-08-26 06:00:31 51°19.131 2°53.768 14.8 356 17.9 100050 49
2011-08-26 06:00:36 51°19.144 2°53.781 13.6 355 17.9 100050 48
2011-08-26 06:00:40 51°19.155 2°53.792 14.7 355 17.9 100050 48
2011-08-26 06:00:46 51°19.17 2°53.808 11.8 354 17.9 100050 48
2011-08-26 06:00:51 51°19.184 2°53.821 10.1 353 17.9 100050 48
2011-08-26 06:00:56 51°19.197 2°53.835 13.6 354 17.9 100050 48
2011-08-26 06:01:00 51°19.208 2°53.846 13.2 356 17.9 100050 47
2011-08-26 06:01:06 51°19.223 2°53.863 10.9 354 17.9 100060 49
2011-08-26 06:01:11 51°19.236 2°53.877 10.5 353 17.9 100060 49
2011-08-26 06:01:16 51°19.249 2°53.891 11.3 353 17.9 100060 49
2011-08-26 06:01:20 51°19.259 2°53.903 15.7 354 17.9 100050 49
2011-08-26 06:01:26 51°19.274 2°53.922 10.2 352 17.9 100050 49
2011-08-26 06:01:31 51°19.287 2°53.937 11.2 353 17.9 100050 49
2011-08-26 06:01:36 51°19.299 2°53.953 16.8 354 17.9 100050 49
2011-08-26 06:01:40 51°19.308 2°53.966 10.6 354 18 100060 48
2011-08-26 06:01:46 51°19.323 2°53.985 12.7 352 17.9 100060 49
2011-08-26 06:01:51 51°19.335 2°54.001 15.4 351 17.9 100060 49
2011-08-26 06:01:56 51°19.347 2°54.017 14.8 352 18 100060 48
2011-08-26 06:02:00 51°19.357 2°54.03 15.3 277 18 100060 48
2011-08-26 06:02:06 51°19.371 2°54.049 10.8 350 18 100060 48
2011-08-26 06:02:11 51°19.383 2°54.065 13.3 352 18 100060 49
2011-08-26 06:02:16 51°19.396 2°54.081 13.1 353 18 100060 49
2011-08-26 06:02:20 51°19.405 2°54.093 13.7 352 18 100060 49
2011-08-26 06:02:26 51°19.42 2°54.113 15.4 351 18 100050 49
2011-08-26 06:02:31 51°19.432 2°54.128 17 350 18 100050 49
2011-08-26 06:02:36 51°19.444 2°54.144 10.3 352 17.9 100050 48
2011-08-26 06:02:40 51°19.454 2°54.157 17.5 353 17.9 100050 48
2011-08-26 06:02:46 51°19.469 2°54.176 14 351 17.9 100060 49
2011-08-26 06:02:51 51°19.481 2°54.191 14.1 352 17.9 100060 49
2011-08-26 06:02:56 51°19.493 2°54.207 11.1 354 17.9 100050 48
2011-08-26 06:03:00 51°19.503 2°54.219 11 278 17.9 100050 48
2011-08-26 06:03:06 51°19.517 2°54.238 11 351 17.9 100050 48
2011-08-26 06:03:11 51°19.53 2°54.253 13.6 352 17.9 100050 48
2011-08-26 06:03:16 51°19.542 2°54.268 12.1 353 17.9 100050 48
2011-08-26 06:03:20 51°19.552 2°54.28 14.8 353 17.9 100050 49
2011-08-26 06:03:26 51°19.567 2°54.298 11.3 354 17.9 100050 49
2011-08-26 06:03:31 51°19.58 2°54.312 10.7 353 17.9 100050 49
2011-08-26 06:03:36 51°19.593 2°54.326 6.3 352 17.9 100050 49
2011-08-26 06:03:40 51°19.604 2°54.337 15 355 17.9 100050 47
2011-08-26 06:03:46 51°19.62 2°54.353 11.2 354 17.9 100040 49
2011-08-26 06:03:51 51°19.633 2°54.366 10.6 354 17.9 100040 49
2011-08-26 06:03:56 51°19.646 2°54.38 10.8 354 17.9 100040 49
2011-08-26 06:04:00 51°19.657 2°54.391 14.8 353 17.9 100040 49
2011-08-26 06:04:06 51°19.672 2°54.407 14 354 17.9 100040 49
2011-08-26 06:04:11 51°19.685 2°54.421 13.2 353 17.9 100040 48
2011-08-26 06:04:16 51°19.698 2°54.435 10.2 354 17.9 100050 48
2011-08-26 06:04:20 51°19.708 2°54.446 15 354 17.9 100050 48
2011-08-26 06:04:26 51°19.724 2°54.462 16.4 353 17.9 100050 49
2011-08-26 06:04:31 51°19.737 2°54.476 15 352 17.9 100050 49
2011-08-26 06:04:36 51°19.75 2°54.489 13.1 353 17.9 100040 48
2011-08-26 06:04:40 51°19.761 2°54.501 14.1 351 17.9 100040 48
2011-08-26 06:04:46 51°19.776 2°54.517 9.9 349 17.9 100040 48
2011-08-26 06:04:51 51°19.79 2°54.531 10.3 351 17.9 100040 48
2011-08-26 06:04:56 51°19.803 2°54.544 12 352 17.9 100040 48
2011-08-26 06:05:00 51°19.813 2°54.556 12.8 351 17.9 100040 48
2011-08-26 06:05:06 51°19.829 2°54.572 12.3 352 17.9 100040 48
2011-08-26 06:05:11 51°19.841 2°54.587 15.2 277 17.9 100040 48
2011-08-26 06:05:16 51°19.854 2°54.601 14.6 352 17.9 100050 49
2011-08-26 06:05:20 51°19.864 2°54.613 11.6 351 17.9 100050 49
2011-08-26 06:05:26 51°19.88 2°54.63 15.9 350 17.9 100050 49
2011-08-26 06:05:31 51°19.893 2°54.645 15.8 351 17.9 100050 49
2011-08-26 06:05:36 51°19.905 2°54.66 11.3 353 17.9 100050 49
2011-08-26 06:05:40 51°19.915 2°54.672 11 351 18 100050 49
2011-08-26 06:05:46 51°19.93 2°54.691 16.3 352 18 100050 49
2011-08-26 06:05:51 51°19.942 2°54.707 10.7 353 17.9 100040 49
2011-08-26 06:05:56 51°19.954 2°54.724 14.6 351 17.9 100040 49
2011-08-26 06:06:00 51°19.964 2°54.736 14.6 349 17.9 100040 49
2011-08-26 06:06:06 51°19.978 2°54.757 14.8 351 17.9 100040 49
2011-08-26 06:06:11 51°19.99 2°54.773 6.2 351 17.9 100040 49
2011-08-26 06:06:16 51°20.001 2°54.79 13.9 351 17.9 100040 47
2011-08-26 06:06:20 51°20.012 2°54.802 13.2 352 17.9 100040 47
2011-08-26 06:06:26 51°20.026 2°54.821 14.2 348 17.9 100040 48
2011-08-26 06:06:31 51°20.039 2°54.836 16.2 351 17.9 100040 48
2011-08-26 06:06:36 51°20.051 2°54.852 14 350 17.9 100040 49
2011-08-26 06:06:40 51°20.061 2°54.865 11.7 352 17.9 100040 49
2011-08-26 06:06:46 51°20.075 2°54.884 6.4 352 17.9 100040 49
2011-08-26 06:06:51 51°20.088 2°54.899 14.5 353 17.9 100040 49
2011-08-26 06:06:56 51°20.1 2°54.916 15 351 17.9 100030 48
2011-08-26 06:07:00 51°20.109 2°54.929 16.6 352 17.9 100030 48
2011-08-26 06:07:06 51°20.124 2°54.949 15.5 349 17.9 100030 48
2011-08-26 06:07:11 51°20.136 2°54.964 16.9 278 17.9 100030 49
2011-08-26 06:07:16 51°20.148 2°54.981 15.4 354 17.9 100040 48
2011-08-26 06:07:20 51°20.158 2°54.993 12 277 17.9 100040 48
2011-08-26 06:07:26 51°20.173 2°55.013 10.6 350 17.9 100040 48
2011-08-26 06:07:31 51°20.185 2°55.029 13.6 278 17.9 100040 49
2011-08-26 06:07:36 51°20.197 2°55.045 14.7 352 17.9 100040 49
2011-08-26 06:07:40 51°20.208 2°55.057 11.9 351 17.9 100040 48
2011-08-26 06:07:46 51°20.223 2°55.076 10.5 353 17.9 100040 48
2011-08-26 06:07:51 51°20.235 2°55.09 10.7 353 17.9 100040 49
2011-08-26 06:07:56 51°20.248 2°55.105 10.6 353 17.9 100040 49
2011-08-26 06:08:00 51°20.259 2°55.116 10 352 17.9 100040 48
2011-08-26 06:08:06 51°20.275 2°55.133 15.1 352 17.9 100040 48
2011-08-26 06:08:11 51°20.288 2°55.146 10.3 352 17.9 100040 49
2011-08-26 06:08:16 51°20.301 2°55.161 17.1 352 17.9 100040 48
2011-08-26 06:08:20 51°20.312 2°55.173 11.9 352 17.9 100040 48
2011-08-26 06:08:26 51°20.327 2°55.19 10.4 355 17.9 100040 48
2011-08-26 06:08:31 51°20.34 2°55.205 8.9 353 17.9 100050 48
2011-08-26 06:08:36 51°20.353 2°55.22 9.6 352 17.9 100040 49
2011-08-26 06:08:40 51°20.363 2°55.233 12.5 352 17.9 100040 49
2011-08-26 06:08:46 51°20.378 2°55.251 10.9 352 17.9 100040 49
2011-08-26 06:08:51 51°20.39 2°55.267 10.4 352 17.9 100050 49
2011-08-26 06:08:56 51°20.402 2°55.283 14.9 350 17.9 100050 47
2011-08-26 06:09:00 51°20.412 2°55.296 12.5 352 17.9 100050 47
2011-08-26 06:09:06 51°20.427 2°55.314 13.4 352 17.9 100050 47
2011-08-26 06:09:11 51°20.439 2°55.331 14.3 352 17.9 100050 48
2011-08-26 06:09:16 51°20.452 2°55.346 14.8 352 17.9 100040 49
2011-08-26 06:09:20 51°20.463 2°55.357 12.8 351 17.9 100040 49
2011-08-26 06:09:26 51°20.478 2°55.373 14.4 353 17.9 100040 49
2011-08-26 06:09:31 51°20.492 2°55.387 12.1 355 17.9 100050 48
2011-08-26 06:09:36 51°20.505 2°55.4 9.9 353 17.9 100040 49
2011-08-26 06:09:40 51°20.516 2°55.411 9.2 355 17.9 100040 49
2011-08-26 06:09:46 51°20.532 2°55.427 11.3 354 17.9 100040 49
2011-08-26 06:09:51 51°20.545 2°55.441 13.8 355 17.9 100050 48
2011-08-26 06:09:56 51°20.557 2°55.455 14.2 355 17.9 100040 49
2011-08-26 06:10:00 51°20.568 2°55.467 6.3 353 17.9 100040 49
2011-08-26 06:10:06 51°20.583 2°55.484 13.4 352 17.9 100040 49
2011-08-26 06:10:11 51°20.595 2°55.5 10.5 350 17.9 100040 49
2011-08-26 06:10:16 51°20.608 2°55.515 17.3 352 17.9 100040 49
2011-08-26 06:10:20 51°20.618 2°55.528 14.6 353 17.9 100040 49
2011-08-26 06:10:26 51°20.632 2°55.547 14.3 352 17.9 100040 49
2011-08-26 06:10:31 51°20.644 2°55.563 14.9 352 17.9 100040 48
2011-08-26 06:10:36 51°20.657 2°55.579 15.1 355 17.9 100040 48
2011-08-26 06:10:40 51°20.667 2°55.591 6.1 354 17.9 100040 48
2011-08-26 06:10:46 51°20.681 2°55.61 11.4 352 17.9 100040 48
2011-08-26 06:10:51 51°20.694 2°55.626 14.4 354 17.9 100040 48
2011-08-26 06:10:56 51°20.706 2°55.642 14.1 350 17.9 100040 48
2011-08-26 06:11:00 51°20.715 2°55.654 6.7 351 17.9 100040 48
2011-08-26 06:11:06 51°20.73 2°55.673 6.3 355 17.9 100040 48
2011-08-26 06:11:11 51°20.742 2°55.689 14.9 354 17.9 100040 49
2011-08-26 06:11:16 51°20.754 2°55.704 11.2 353 17.9 100040 49
2011-08-26 06:11:20 51°20.764 2°55.717 14.4 351 17.9 100040 49
2011-08-26 06:11:26 51°20.779 2°55.735 14.9 353 17.9 100040 49
2011-08-26 06:11:31 51°20.792 2°55.75 16.2 355 17.9 100050 48
2011-08-26 06:11:36 51°20.805 2°55.765 11.3 356 17.9 100040 47
2011-08-26 06:11:40 51°20.815 2°55.776 13.9 356 17.9 100040 47
2011-08-26 06:11:46 51°20.832 2°55.791 10.6 356 17.9 100040 47
2011-08-26 06:11:50 51°20.842 2°55.802 16.3 356 17.9 100050 49
2011-08-26 06:11:56 51°20.859 2°55.817 14.5 353 17.9 100040 49
2011-08-26 06:12:00 51°20.869 2°55.828 14.7 357 17.9 100040 49
2011-08-26 06:12:06 51°20.885 2°55.844 13.9 354 17.9 100040 49
2011-08-26 06:12:11 51°20.899 2°55.857 16.3 357 17.9 100030 48
2011-08-26 06:12:16 51°20.912 2°55.871 15.2 353 17.9 100030 49
2011-08-26 06:12:20 51°20.922 2°55.882 16.2 354 17.9 100030 49
2011-08-26 06:12:26 51°20.938 2°55.9 19.1 354 17.9 100030 49
2011-08-26 06:12:31 51°20.951 2°55.914 7.3 355 17.9 100030 48
2011-08-26 06:12:36 51°20.963 2°55.929 12.5 356 17.9 100030 49
2011-08-26 06:12:41 51°20.976 2°55.944 12.3 353 17.9 100030 49
2011-08-26 06:12:46 51°20.988 2°55.96 15.6 353 17.9 100030 48
2011-08-26 06:12:51 51°21 2°55.975 7.3 351 17.9 100030 48
2011-08-26 06:12:56 51°21.012 2°55.991 7.8 354 17.9 100030 48
2011-08-26 06:13:00 51°21.022 2°56.003 7.6 354 17.9 100020 48
2011-08-26 06:13:06 51°21.037 2°56.021 11.2 352 17.9 100030 49
2011-08-26 06:13:11 51°21.049 2°56.037 19.3 354 17.9 100030 49
2011-08-26 06:13:16 51°21.062 2°56.052 7.7 355 17.9 100030 48
2011-08-26 06:13:20 51°21.071 2°56.064 7 354 17.9 100030 48
2011-08-26 06:13:26 51°21.086 2°56.082 17.7 355 17.9 100020 49
2011-08-26 06:13:31 51°21.099 2°56.097 13.2 -999 17.9 100020 49
2011-08-26 06:13:36 51°21.112 2°56.11 11.7 353 17.9 100020 48
2011-08-26 06:13:40 51°21.122 2°56.122 18 353 17.9 100020 48
2011-08-26 06:13:46 51°21.138 2°56.138 14.9 357 17.9 100020 48
2011-08-26 06:13:51 51°21.152 2°56.151 11.4 357 17.9 100020 48
2011-08-26 06:13:56 51°21.165 2°56.165 11.7 354 17.9 100030 49
2011-08-26 06:14:00 51°21.175 2°56.175 17.3 357 17.9 100030 49
2011-08-26 06:14:06 51°21.191 2°56.191 13.6 358 17.9 100030 49
2011-08-26 06:14:11 51°21.205 2°56.204 16.6 355 17.9 100020 49
2011-08-26 06:14:16 51°21.218 2°56.218 10.9 355 17.9 100020 47
2011-08-26 06:14:20 51°21.228 2°56.228 9.2 354 17.9 100020 47
2011-08-26 06:14:26 51°21.244 2°56.245 15.4 353 17.9 100020 47
2011-08-26 06:14:31 51°21.256 2°56.26 10.9 352 17.9 100030 48
2011-08-26 06:14:36 51°21.269 2°56.275 16.5 354 17.9 100030 49
2011-08-26 06:14:41 51°21.281 2°56.29 11.6 354 17.9 100030 49
2011-08-26 06:14:46 51°21.293 2°56.306 15.7 354 17.9 100030 49
2011-08-26 06:14:51 51°21.305 2°56.321 11.9 353 17.9 100030 48
2011-08-26 06:14:56 51°21.317 2°56.337 11.6 351 17.9 100030 48
2011-08-26 06:15:00 51°21.326 2°56.35 9.1 278 17.9 100030 49
2011-08-26 06:15:06 51°21.34 2°56.369 6.5 353 17.9 100030 49
2011-08-26 06:15:11 51°21.352 2°56.385 14.3 351 17.9 100030 49
2011-08-26 06:15:16 51°21.364 2°56.401 5.9 352 17.9 100030 48
2011-08-26 06:15:20 51°21.373 2°56.414 18 353 17.9 100030 48
2011-08-26 06:15:26 51°21.388 2°56.433 16.4 355 17.8 100030 48
2011-08-26 06:15:31 51°21.4 2°56.449 6.6 -999 17.8 100030 48
2011-08-26 06:15:36 51°21.412 2°56.464 10.6 355 17.9 100030 49
2011-08-26 06:15:40 51°21.422 2°56.476 10.1 352 17.9 100030 49
2011-08-26 06:15:46 51°21.437 2°56.493 16.5 352 17.9 100030 49
2011-08-26 06:15:51 51°21.45 2°56.508 11.6 277 17.8 100020 49
2011-08-26 06:15:56 51°21.462 2°56.522 16.5 355 17.9 100020 49
2011-08-26 06:16:00 51°21.473 2°56.533 10.8 355 17.9 100020 49
2011-08-26 06:16:06 51°21.488 2°56.55 12.8 354 17.9 100020 49
2011-08-26 06:16:11 51°21.501 2°56.565 10.5 354 17.9 100030 48
2011-08-26 06:16:16 51°21.513 2°56.579 13.4 352 17.9 100020 48
2011-08-26 06:16:21 51°21.525 2°56.594 12.6 353 17.9 100020 48
2011-08-26 06:16:26 51°21.538 2°56.609 10.6 353 17.9 100020 48
2011-08-26 06:16:31 51°21.55 2°56.624 13.9 353 17.9 100020 48
2011-08-26 06:16:36 51°21.562 2°56.64 10.2 355 17.9 100030 49
2011-08-26 06:16:41 51°21.575 2°56.656 10.6 355 17.9 100030 49
2011-08-26 06:16:46 51°21.586 2°56.672 11.1 353 17.9 100030 49
2011-08-26 06:16:51 51°21.598 2°56.687 10.5 353 17.9 100030 48
2011-08-26 06:16:56 51°21.61 2°56.703 14.2 352 17.9 100030 48
2011-08-26 06:17:00 51°21.62 2°56.715 12.4 351 17.9 100030 47
2011-08-26 06:17:06 51°21.635 2°56.734 10.5 352 17.9 100020 49
2011-08-26 06:17:11 51°21.647 2°56.75 13.7 354 17.9 100020 49
2011-08-26 06:17:16 51°21.659 2°56.765 11 350 17.9 100020 48
2011-08-26 06:17:21 51°21.671 2°56.781 15.3 353 17.9 100020 48
2011-08-26 06:17:26 51°21.684 2°56.796 14.1 355 17.9 100030 49
2011-08-26 06:17:31 51°21.696 2°56.811 10.6 -999 17.9 100030 49
2011-08-26 06:17:36 51°21.708 2°56.826 6.8 352 17.9 100030 49
2011-08-26 06:17:40 51°21.719 2°56.837 10.6 355 17.9 100010 48
2011-08-26 06:17:46 51°21.734 2°56.854 10.7 356 17.9 100020 48
2011-08-26 06:17:51 51°21.747 2°56.867 15 355 17.9 100020 48
2011-08-26 06:17:56 51°21.76 2°56.882 14.2 352 17.9 100010 49
2011-08-26 06:18:01 51°21.773 2°56.895 11.4 351 17.9 100010 49
2011-08-26 06:18:06 51°21.786 2°56.91 13.1 351 17.9 100010 49
2011-08-26 06:18:11 51°21.799 2°56.923 12 352 17.9 100010 49
2011-08-26 06:18:16 51°21.811 2°56.938 16 350 17.9 100020 49
2011-08-26 06:18:20 51°21.821 2°56.95 14.5 353 17.9 100020 49
2011-08-26 06:18:26 51°21.836 2°56.968 15.1 351 17.9 100020 49
2011-08-26 06:18:31 51°21.848 2°56.984 14.2 352 17.9 100020 49
2011-08-26 06:18:36 51°21.861 2°56.999 9.5 350 17.9 100010 49
2011-08-26 06:18:41 51°21.872 2°57.015 14.5 352 17.9 100010 49
2011-08-26 06:18:46 51°21.885 2°57.03 13.6 351 17.9 100000 49
2011-08-26 06:18:51 51°21.897 2°57.046 6.9 352 17.9 100000 49
2011-08-26 06:18:56 51°21.908 2°57.061 6.4 352 17.9 100000 49
2011-08-26 06:19:00 51°21.918 2°57.073 16.6 354 17.9 100000 49
2011-08-26 06:19:06 51°21.933 2°57.091 11.1 351 17.9 99990 49
2011-08-26 06:19:11 51°21.946 2°57.106 16.3 276 17.9 99990 49
2011-08-26 06:19:16 51°21.958 2°57.12 15 351 17.9 99990 49
2011-08-26 06:19:20 51°21.969 2°57.132 10 350 17.9 99990 48
2011-08-26 06:19:26 51°21.984 2°57.149 14.6 353 17.9 99990 49
2011-08-26 06:19:31 51°21.997 2°57.164 14.5 -999 17.9 99990 49
2011-08-26 06:19:36 51°22.009 2°57.178 14.4 352 17.9 99990 49
2011-08-26 06:19:40 51°22.02 2°57.19 16.1 352 17.9 100000 47
2011-08-26 06:19:46 51°22.035 2°57.208 16.1 351 17.9 99990 48
2011-08-26 06:19:51 51°22.047 2°57.222 15.8 352 17.9 99990 48
2011-08-26 06:19:56 51°22.059 2°57.238 14 350 17.9 99990 49
2011-08-26 06:20:00 51°22.07 2°57.249 13 279 17.9 99990 49
2011-08-26 06:20:06 51°22.084 2°57.268 14.5 351 17.9 99990 49
2011-08-26 06:20:11 51°22.097 2°57.282 11.4 350 17.9 99990 48
2011-08-26 06:20:16 51°22.109 2°57.298 15.1 349 17.9 99990 49
2011-08-26 06:20:20 51°22.119 2°57.311 6.8 280 17.9 99990 49
2011-08-26 06:20:26 51°22.133 2°57.33 15.2 352 17.9 99990 49
2011-08-26 06:20:31 51°22.145 2°57.346 14.3 279 17.9 99990 48
2011-08-26 06:20:36 51°22.157 2°57.361 17.2 349 17.9 100000 49
2011-08-26 06:20:41 51°22.168 2°57.378 12.1 279 17.9 100000 49
2011-08-26 06:20:46 51°22.18 2°57.393 11.5 347 17.9 100000 49
2011-08-26 06:20:51 51°22.192 2°57.41 11.4 280 17.9 99980 48
2011-08-26 06:20:56 51°22.204 2°57.425 10.7 351 17.9 99980 49
2011-08-26 06:21:00 51°22.213 2°57.438 11.4 277 17.9 99980 49
2011-08-26 06:21:06 51°22.228 2°57.457 12.1 348 17.9 99990 49
2011-08-26 06:21:11 51°22.24 2°57.473 10.9 279 17.9 99990 49
2011-08-26 06:21:16 51°22.252 2°57.488 11.8 349 17.9 99990 49
2011-08-26 06:21:21 51°22.264 2°57.503 11.2 350 17.9 99990 49
2011-08-26 06:21:26 51°22.277 2°57.518 13.2 350 17.9 99980 49
2011-08-26 06:21:31 51°22.29 2°57.531 10.8 350 17.9 99980 49
2011-08-26 06:21:36 51°22.302 2°57.546 10.5 350 17.9 99990 48
2011-08-26 06:21:40 51°22.313 2°57.557 10.3 349 17.9 99990 48
2011-08-26 06:21:46 51°22.328 2°57.573 11 348 17.9 99980 48
2011-08-26 06:21:51 51°22.341 2°57.588 15.4 350 17.9 99980 48
2011-08-26 06:21:56 51°22.354 2°57.601 11.2 351 17.9 99980 48
2011-08-26 06:22:01 51°22.367 2°57.616 14.1 348 17.9 99980 49
2011-08-26 06:22:06 51°22.38 2°57.63 13 348 17.9 99980 49
2011-08-26 06:22:11 51°22.392 2°57.644 10.7 350 17.9 99980 49
2011-08-26 06:22:16 51°22.405 2°57.658 14.3 348 17.9 99980 47
2011-08-26 06:22:20 51°22.416 2°57.669 6.5 350 17.9 99980 47
2011-08-26 06:22:26 51°22.431 2°57.686 11.7 348 17.9 99980 47
2011-08-26 06:22:31 51°22.444 2°57.7 14.1 278 17.9 99980 48
2011-08-26 06:22:36 51°22.456 2°57.715 14 349 17.9 99980 49
2011-08-26 06:22:40 51°22.467 2°57.726 12.8 279 17.9 99980 49
2011-08-26 06:22:46 51°22.482 2°57.744 9.5 346 17.9 99980 49
2011-08-26 06:22:51 51°22.494 2°57.759 14.8 347 17.9 99980 49
2011-08-26 06:22:56 51°22.506 2°57.774 14.1 347 17.9 99980 49
2011-08-26 06:23:00 51°22.516 2°57.786 10.9 280 17.9 99980 48
2011-08-26 06:23:06 51°22.531 2°57.805 10.4 345 17.9 99970 49
2011-08-26 06:23:11 51°22.543 2°57.821 11.1 279 17.9 99970 49
2011-08-26 06:23:16 51°22.554 2°57.838 11 344 17.9 99970 49
2011-08-26 06:23:20 51°22.564 2°57.85 12.6 282 17.9 99970 49
2011-08-26 06:23:26 51°22.578 2°57.87 11 347 17.9 99970 48
2011-08-26 06:23:31 51°22.59 2°57.886 14 281 17.9 99970 48
2011-08-26 06:23:36 51°22.602 2°57.902 10.2 346 17.9 99970 48
2011-08-26 06:23:41 51°22.613 2°57.919 10.5 277 17.9 99970 48
2011-08-26 06:23:46 51°22.625 2°57.935 9.6 346 17.9 99970 48
2011-08-26 06:23:51 51°22.637 2°57.95 9.8 282 17.9 99970 49
2011-08-26 06:23:56 51°22.65 2°57.966 6.1 345 17.9 99970 49
2011-08-26 06:24:00 51°22.659 2°57.978 11.5 278 17.9 99960 49
2011-08-26 06:24:06 51°22.674 2°57.997 14.2 344 17.9 99960 49
2011-08-26 06:24:11 51°22.686 2°58.012 6 281 17.9 99960 49
2011-08-26 06:24:16 51°22.699 2°58.026 10.4 346 17.9 99960 49
2011-08-26 06:24:20 51°22.709 2°58.038 15.4 282 17.9 99960 49
2011-08-26 06:24:26 51°22.725 2°58.055 11.3 345 17.9 99960 49
2011-08-26 06:24:31 51°22.737 2°58.07 9.6 282 17.9 99960 49
2011-08-26 06:24:36 51°22.75 2°58.083 14.3 345 17.9 99960 49
2011-08-26 06:24:40 51°22.761 2°58.094 10 281 17.9 99960 49
2011-08-26 06:24:46 51°22.776 2°58.112 6.4 346 17.9 99960 49
2011-08-26 06:24:51 51°22.789 2°58.125 8.9 281 17.9 99950 49
2011-08-26 06:24:56 51°22.802 2°58.14 12 349 17.9 99970 48
2011-08-26 06:25:01 51°22.815 2°58.155 12.4 346 17.9 99970 48
2011-08-26 06:25:06 51°22.827 2°58.169 14.2 345 17.9 99970 48
2011-08-26 06:25:11 51°22.84 2°58.184 11 279 17.9 99970 48
2011-08-26 06:25:16 51°22.852 2°58.199 10.8 345 17.9 99960 49
2011-08-26 06:25:20 51°22.862 2°58.211 6.4 345 17.9 99960 49
2011-08-26 06:25:26 51°22.877 2°58.229 13.7 345 17.9 99960 49
2011-08-26 06:25:31 51°22.889 2°58.245 16.9 279 17.9 99960 49
2011-08-26 06:25:36 51°22.901 2°58.26 15.7 346 17.9 99960 48
2011-08-26 06:25:41 51°22.913 2°58.276 11.7 281 17.9 99960 48
2011-08-26 06:25:46 51°22.925 2°58.292 11.7 342 17.9 99960 49
2011-08-26 06:25:51 51°22.937 2°58.309 14.1 285 17.9 99960 49
2011-08-26 06:25:56 51°22.949 2°58.325 17.6 345 17.9 99950 48
2011-08-26 06:26:01 51°22.961 2°58.341 8.6 280 17.9 99950 48
2011-08-26 06:26:06 51°22.972 2°58.357 15.4 344 17.9 99950 48
2011-08-26 06:26:11 51°22.984 2°58.373 14.3 281 17.9 99950 49
2011-08-26 06:26:16 51°22.996 2°58.39 11 344 17.9 99950 49
2011-08-26 06:26:21 51°23.007 2°58.406 14.2 284 17.9 99950 49
2011-08-26 06:26:26 51°23.019 2°58.422 10.3 344 17.9 99960 49
2011-08-26 06:26:31 51°23.032 2°58.438 10.8 279 17.9 99960 49
2011-08-26 06:26:36 51°23.044 2°58.454 14.6 345 17.9 99950 49
2011-08-26 06:26:40 51°23.054 2°58.466 11.4 281 17.9 99950 49
2011-08-26 06:26:46 51°23.068 2°58.484 16.8 346 17.9 99950 49
2011-08-26 06:26:51 51°23.081 2°58.498 6.7 280 17.9 99950 49
2011-08-26 06:26:56 51°23.094 2°58.512 10.7 346 17.9 99950 49
2011-08-26 06:27:00 51°23.104 2°58.523 15.3 282 17.9 99950 49
2011-08-26 06:27:06 51°23.12 2°58.54 10.7 345 17.9 99950 49
2011-08-26 06:27:11 51°23.133 2°58.554 10.5 281 17.9 99950 48
2011-08-26 06:27:16 51°23.145 2°58.568 12.2 344 17.9 99960 49
2011-08-26 06:27:20 51°23.156 2°58.579 10.3 280 17.9 99960 49
2011-08-26 06:27:26 51°23.171 2°58.596 14.6 346 17.9 99960 49
2011-08-26 06:27:31 51°23.184 2°58.611 6.6 344 17.9 99950 48
2011-08-26 06:27:36 51°23.197 2°58.625 9.5 344 17.9 99960 47
2011-08-26 06:27:41 51°23.209 2°58.64 12.9 281 17.9 99960 47
2011-08-26 06:27:46 51°23.222 2°58.655 16.1 345 17.9 99960 47
2011-08-26 06:27:51 51°23.234 2°58.67 13.9 283 17.9 99950 49
2011-08-26 06:27:56 51°23.246 2°58.686 13.1 343 17.9 99960 48
2011-08-26 06:28:00 51°23.256 2°58.699 10.8 283 17.9 99960 48
2011-08-26 06:28:06 51°23.271 2°58.718 12.2 344 17.9 99950 48
2011-08-26 06:28:11 51°23.283 2°58.734 6.7 281 17.9 99950 48
2011-08-26 06:28:16 51°23.294 2°58.751 16.3 344 17.9 99960 48
2011-08-26 06:28:21 51°23.307 2°58.767 13.2 347 17.9 99960 48
2011-08-26 06:28:26 51°23.318 2°58.784 10.2 346 17.9 99950 49
2011-08-26 06:28:31 51°23.33 2°58.8 16.5 281 17.9 99950 49
2011-08-26 06:28:36 51°23.342 2°58.817 14.4 346 17.9 99950 49
2011-08-26 06:28:40 51°23.352 2°58.829 10.8 281 17.9 99950 49
2011-08-26 06:28:46 51°23.366 2°58.848 6.2 344 17.9 99950 48
2011-08-26 06:28:51 51°23.379 2°58.864 15.7 345 17.9 99950 48
2011-08-26 06:28:56 51°23.391 2°58.879 10.7 347 17.9 99950 48
2011-08-26 06:29:01 51°23.403 2°58.895 9.4 280 17.9 99950 48
2011-08-26 06:29:06 51°23.416 2°58.909 10.2 348 17.9 99950 48
2011-08-26 06:29:11 51°23.429 2°58.924 10.3 277 17.9 99950 49
2011-08-26 06:29:16 51°23.442 2°58.938 12.4 347 17.9 99940 48
2011-08-26 06:29:20 51°23.452 2°58.949 16.2 349 17.9 99940 48
2011-08-26 06:29:26 51°23.467 2°58.967 14.3 348 17.9 99960 48
2011-08-26 06:29:31 51°23.48 2°58.981 10.3 280 17.9 99960 48
2011-08-26 06:29:36 51°23.493 2°58.996 13 349 17.9 99950 48
2011-08-26 06:29:41 51°23.505 2°59.01 10.2 348 17.9 99950 48
2011-08-26 06:29:46 51°23.518 2°59.025 12.5 348 17.9 99950 49
2011-08-26 06:29:51 51°23.53 2°59.04 11.9 279 17.9 99950 49
2011-08-26 06:29:56 51°23.543 2°59.055 10 348 17.9 99950 48
2011-08-26 06:30:00 51°23.553 2°59.067 11.5 280 17.9 99950 48
2011-08-26 06:30:06 51°23.568 2°59.084 13.9 351 17.9 99950 49
2011-08-26 06:30:11 51°23.58 2°59.099 12.3 281 17.9 99950 49
2011-08-26 06:30:16 51°23.593 2°59.113 12.7 348 17.9 99950 49
2011-08-26 06:30:21 51°23.606 2°59.127 14.9 281 17.9 99950 48
2011-08-26 06:30:26 51°23.619 2°59.141 15.2 348 17.9 99950 49
2011-08-26 06:30:31 51°23.631 2°59.155 11.5 281 17.9 99950 49
2011-08-26 06:30:36 51°23.644 2°59.17 12.1 347 17.9 99940 49
2011-08-26 06:30:41 51°23.656 2°59.185 13.7 281 17.9 99940 49
2011-08-26 06:30:46 51°23.668 2°59.201 7.1 347 17.9 99940 48
2011-08-26 06:30:51 51°23.681 2°59.216 11.9 280 17.9 99940 48
2011-08-26 06:30:56 51°23.692 2°59.232 15.7 345 17.9 99930 48
2011-08-26 06:31:00 51°23.702 2°59.245 10.5 282 17.9 99930 48
2011-08-26 06:31:06 51°23.716 2°59.265 6.7 346 17.9 99940 49
2011-08-26 06:31:11 51°23.727 2°59.281 7.3 280 17.9 99940 49
2011-08-26 06:31:16 51°23.739 2°59.298 16.9 346 17.9 99950 48
2011-08-26 06:31:20 51°23.748 2°59.311 6.6 346 17.9 99950 48
2011-08-26 06:31:26 51°23.763 2°59.331 11.3 347 17.9 99950 48
2011-08-26 06:31:31 51°23.775 2°59.348 12.9 281 17.9 99950 48
2011-08-26 06:31:36 51°23.787 2°59.364 6.5 346 17.9 99950 48
2011-08-26 06:31:40 51°23.796 2°59.378 16.2 280 17.9 99950 48
2011-08-26 06:31:46 51°23.811 2°59.397 14.5 348 17.9 99950 48
2011-08-26 06:31:51 51°23.823 2°59.414 12.2 278 17.9 99950 49
2011-08-26 06:31:56 51°23.835 2°59.429 11.9 347 17.9 99950 48
2011-08-26 06:32:00 51°23.845 2°59.442 14.1 281 17.9 99950 48
2011-08-26 06:32:06 51°23.86 2°59.46 6.5 348 17.9 99950 49
2011-08-26 06:32:11 51°23.872 2°59.475 5.9 278 17.9 99950 49
2011-08-26 06:32:16 51°23.885 2°59.49 6.1 348 17.9 99960 49
2011-08-26 06:32:21 51°23.898 2°59.505 13.3 280 17.9 99960 49
2011-08-26 06:32:26 51°23.911 2°59.52 15.5 348 17.9 99960 49
2011-08-26 06:32:31 51°23.923 2°59.535 5.7 348 17.9 99960 48
2011-08-26 06:32:36 51°23.936 2°59.55 9.8 349 17.9 99960 48
2011-08-26 06:32:41 51°23.949 2°59.565 16.2 280 17.9 99950 48
2011-08-26 06:32:46 51°23.962 2°59.58 12.7 347 17.9 99960 49
2011-08-26 06:32:51 51°23.974 2°59.595 10.1 280 17.9 99960 49
2011-08-26 06:32:56 51°23.987 2°59.611 12.7 348 17.9 99970 48
2011-08-26 06:33:00 51°23.997 2°59.623 15.6 281 17.9 99970 48
2011-08-26 06:33:06 51°24.012 2°59.642 14.3 347 17.9 99960 49
2011-08-26 06:33:11 51°24.024 2°59.659 11.4 282 17.9 99960 49
2011-08-26 06:33:16 51°24.035 2°59.676 14.6 347 17.9 99960 49
2011-08-26 06:33:20 51°24.045 2°59.69 14.6 348 17.9 99960 49
2011-08-26 06:33:26 51°24.058 2°59.711 15.1 347 17.9 99970 49
2011-08-26 06:33:31 51°24.07 2°59.729 14.7 349 17.9 99970 49
2011-08-26 06:33:36 51°24.081 2°59.747 14.2 345 17.9 99960 48
2011-08-26 06:33:41 51°24.091 2°59.766 5.8 278 17.9 99960 48
2011-08-26 06:33:46 51°24.102 2°59.784 14.5 348 17.9 99960 48
2011-08-26 06:33:51 51°24.113 2°59.803 9.7 280 17.9 99970 49
2011-08-26 06:33:56 51°24.123 2°59.822 14 347 17.9 99960 48
2011-08-26 06:34:00 51°24.132 2°59.836 10.1 349 17.9 99960 48
2011-08-26 06:34:06 51°24.146 2°59.858 12.8 349 17.9 99960 48
2011-08-26 06:34:11 51°24.157 2°59.875 11.4 350 17.9 99960 49
2011-08-26 06:34:16 51°24.168 2°59.893 10.2 349 17.9 99960 49
2011-08-26 06:34:20 51°24.177 2°59.908 8.8 351 17.9 99960 49
2011-08-26 06:34:26 51°24.191 2°59.929 11.6 347 17.9 99960 49
2011-08-26 06:34:31 51°24.203 2°59.947 14 -999 17.9 99960 49
2011-08-26 06:34:36 51°24.214 2°59.965 14.9 344 17.9 99970 48
2011-08-26 06:34:41 51°24.226 2°59.983 17.7 349 17.9 99970 48
2011-08-26 06:34:46 51°24.237 3°0.001 16.9 348 17.9 99960 49
2011-08-26 06:34:51 51°24.249 3°0.019 7.3 281 17.9 99960 49
2011-08-26 06:34:56 51°24.26 3°0.037 14.7 346 18 99960 49
2011-08-26 06:35:01 51°24.27 3°0.056 10.8 281 18 99960 49
2011-08-26 06:35:06 51°24.282 3°0.074 13.7 348 18 99960 49
2011-08-26 06:35:11 51°24.292 3°0.093 14.9 281 17.9 99960 48
2011-08-26 06:35:16 51°24.303 3°0.112 12.2 348 17.9 99960 48
2011-08-26 06:35:21 51°24.314 3°0.13 12.3 281 17.9 99950 48
2011-08-26 06:35:26 51°24.325 3°0.149 11.5 348 17.9 99940 48
2011-08-26 06:35:31 51°24.336 3°0.168 11.4 -999 17.9 99940 48
2011-08-26 06:35:36 51°24.347 3°0.187 6.9 347 17.9 99940 48
2011-08-26 06:35:40 51°24.356 3°0.202 12.5 282 17.9 99940 48
2011-08-26 06:35:46 51°24.37 3°0.223 14.4 347 17.9 99940 48
2011-08-26 06:35:51 51°24.381 3°0.241 17.4 278 17.9 99940 48
2011-08-26 06:35:56 51°24.393 3°0.259 17.5 348 17.9 99950 48
2011-08-26 06:36:00 51°24.402 3°0.273 16.4 346 17.9 99950 48
2011-08-26 06:36:06 51°24.416 3°0.294 8.7 348 17.9 99950 48
2011-08-26 06:36:11 51°24.428 3°0.311 16.3 282 17.9 99950 49
2011-08-26 06:36:16 51°24.44 3°0.328 6.5 349 17.9 99940 48
2011-08-26 06:36:21 51°24.452 3°0.345 16.3 348 17.9 99940 48
2011-08-26 06:36:26 51°24.464 3°0.361 11.6 350 17.9 99940 48
2011-08-26 06:36:31 51°24.477 3°0.378 13.2 281 17.9 99940 49
2011-08-26 06:36:36 51°24.489 3°0.395 16.1 348 17.9 99940 49
2011-08-26 06:36:40 51°24.498 3°0.408 6.6 278 17.9 99940 49
2011-08-26 06:36:46 51°24.513 3°0.428 16 348 17.9 99940 48
2011-08-26 06:36:51 51°24.525 3°0.445 6.8 350 17.9 99940 48
2011-08-26 06:36:56 51°24.537 3°0.462 10.8 349 17.9 99940 48
2011-08-26 06:37:01 51°24.548 3°0.48 6.5 348 17.9 99940 48
2011-08-26 06:37:06 51°24.56 3°0.498 7 346 17.9 99930 48
2011-08-26 06:37:11 51°24.571 3°0.516 15.8 279 17.9 99930 48
2011-08-26 06:37:16 51°24.582 3°0.534 13.1 349 17.9 99940 49
2011-08-26 06:37:21 51°24.594 3°0.552 6.8 277 17.9 99940 49
2011-08-26 06:37:26 51°24.605 3°0.57 14.9 348 17.9 99940 48
2011-08-26 06:37:31 51°24.617 3°0.588 17.3 -999 17.9 99940 48
2011-08-26 06:37:36 51°24.628 3°0.606 11.8 349 17.9 99930 49
2011-08-26 06:37:41 51°24.64 3°0.624 15.8 281 17.9 99930 49
2011-08-26 06:37:46 51°24.652 3°0.642 7.2 350 17.9 99940 48
2011-08-26 06:37:51 51°24.664 3°0.659 16.1 279 17.9 99940 48
2011-08-26 06:37:56 51°24.676 3°0.676 16 348 17.9 99940 49
2011-08-26 06:38:00 51°24.685 3°0.691 10.1 349 17.9 99940 49
2011-08-26 06:38:06 51°24.699 3°0.713 14 348 18 99950 49
2011-08-26 06:38:11 51°24.71 3°0.732 14.7 279 18 99950 49
2011-08-26 06:38:16 51°24.721 3°0.752 16.3 348 17.9 99940 48
2011-08-26 06:38:20 51°24.73 3°0.767 13.1 283 17.9 99940 48
2011-08-26 06:38:26 51°24.743 3°0.791 7.1 348 17.9 99940 49
2011-08-26 06:38:31 51°24.753 3°0.811 15.7 281 17.9 99940 49
2011-08-26 06:38:36 51°24.764 3°0.831 18.6 347 18 99940 49
2011-08-26 06:38:40 51°24.772 3°0.847 17.2 282 18 99940 49
2011-08-26 06:38:46 51°24.784 3°0.872 20.4 348 18 99940 49
2011-08-26 06:38:51 51°24.794 3°0.892 15.1 280 18 99940 49
2011-08-26 06:38:56 51°24.805 3°0.912 18.2 349 18 99940 49
2011-08-26 06:39:01 51°24.816 3°0.931 16.4 350 18 99940 49
2011-08-26 06:39:06 51°24.827 3°0.951 7.1 351 18 99940 49
2011-08-26 06:39:11 51°24.838 3°0.969 12.4 349 18 99950 49
2011-08-26 06:39:16 51°24.85 3°0.987 15.2 350 18 99950 49
2011-08-26 06:39:20 51°24.859 3°1.001 14.5 350 18 99940 48
2011-08-26 06:39:26 51°24.874 3°1.022 12 352 18 99930 48
2011-08-26 06:39:31 51°24.886 3°1.038 16.2 -999 18 99930 48
2011-08-26 06:39:36 51°24.899 3°1.054 14.2 351 18 99950 48
2011-08-26 06:39:41 51°24.912 3°1.07 13.5 353 18 99950 48
2011-08-26 06:39:46 51°24.925 3°1.085 10.6 353 18 99940 49
2011-08-26 06:39:51 51°24.939 3°1.1 12.4 351 18 99940 49
2011-08-26 06:39:56 51°24.952 3°1.115 10.9 353 18 99940 49
2011-08-26 06:40:00 51°24.963 3°1.127 13.8 352 18 99940 48
2011-08-26 06:40:06 51°24.979 3°1.146 13.5 352 18 99950 49
2011-08-26 06:40:11 51°24.992 3°1.161 14.4 277 18 99950 49
2011-08-26 06:40:16 51°25.005 3°1.176 11.3 351 18 99950 48
2011-08-26 06:40:21 51°25.018 3°1.192 15 352 18 99950 48
2011-08-26 06:40:26 51°25.031 3°1.208 12.7 353 18 99950 48
2011-08-26 06:40:31 51°25.044 3°1.224 11.3 351 18 99950 49
2011-08-26 06:40:36 51°25.056 3°1.241 14 348 18 99950 49
2011-08-26 06:40:41 51°25.069 3°1.257 6 350 18 99950 49
2011-08-26 06:40:46 51°25.081 3°1.275 14.4 350 18 99950 48
2011-08-26 06:40:51 51°25.093 3°1.292 10.6 277 18 99950 48
2011-08-26 06:40:56 51°25.106 3°1.308 12.3 352 18 99950 48
2011-08-26 06:41:01 51°25.118 3°1.325 13.4 352 18 99950 48
2011-08-26 06:41:06 51°25.13 3°1.342 13.9 352 18 99950 48
2011-08-26 06:41:11 51°25.143 3°1.359 10.8 349 18 99950 48
2011-08-26 06:41:16 51°25.155 3°1.376 15.2 352 18 99950 49
2011-08-26 06:41:21 51°25.167 3°1.394 14.4 349 18 99950 49
2011-08-26 06:41:26 51°25.178 3°1.411 15.4 352 17.9 99940 49
2011-08-26 06:41:31 51°25.19 3°1.428 16.1 -999 17.9 99940 49
2011-08-26 06:41:36 51°25.202 3°1.446 11.1 349 18 99950 48
2011-08-26 06:41:41 51°25.214 3°1.462 9.6 351 18 99950 48
2011-08-26 06:41:46 51°25.227 3°1.478 11.4 352 18 99950 48
2011-08-26 06:41:51 51°25.239 3°1.493 15.2 353 18 99950 48